Time;durP1;ratioP1;P1;durP2;ratioP2;P2;SDS_P1;SDS_P2;PMS_P1;PMS_P2;Temp;Humidity;BMP_temperature;BMP_pressure;BME280_temperature;BME280_humidity;BME280_pressure;Samples;Min_cycle;Max_cycle;Signal;HPM_P1;HPM_P2
2021/01/21 00:00:39;;;;;;;3.30;0.47;;;10.30;97.90;;;;;;5056261;28;20167;-73
2021/01/21 00:03:05;;;;;;;0.10;0.00;;;10.30;97.50;;;;;;5037871;28;20030;-73
2021/01/21 00:05:30;;;;;;;0.85;0.15;;;10.40;97.00;;;;;;5036276;28;20100;-74
2021/01/21 00:07:56;;;;;;;1.23;0.00;;;10.40;96.80;;;;;;5051692;28;20521;-73
2021/01/21 00:10:22;;;;;;;0.20;0.00;;;10.40;96.60;;;;;;5051487;28;20112;-73
2021/01/21 00:12:47;;;;;;;2.83;0.20;;;10.40;96.20;;;;;;5056229;28;20368;-73
2021/01/21 00:15:13;;;;;;;1.55;0.00;;;10.50;96.30;;;;;;5056201;28;20083;-73
2021/01/21 00:17:38;;;;;;;0.20;0.05;;;10.50;95.80;;;;;;5053678;28;20466;-73
2021/01/21 00:20:05;;;;;;;0.85;0.20;;;10.60;95.60;;;;;;5055491;28;20029;-73
2021/01/21 00:22:31;;;;;;;3.03;0.25;;;10.60;95.30;;;;;;5055347;28;20116;-73
2021/01/21 00:24:56;;;;;;;0.80;0.00;;;10.60;95.10;;;;;;5042471;28;20802;-73
2021/01/21 00:27:22;;;;;;;3.03;0.30;;;10.60;95.00;;;;;;5054739;28;20387;-73
2021/01/21 00:29:47;;;;;;;0.35;0.00;;;10.70;94.90;;;;;;5053590;28;20013;-73
2021/01/21 00:32:16;;;;;;;0.63;0.17;;;10.70;94.50;;;;;;5037789;28;20472;-73
2021/01/21 00:34:41;;;;;;;1.20;0.00;;;10.70;94.50;;;;;;5036370;28;20479;-73
2021/01/21 00:37:07;;;;;;;5.28;0.22;;;10.80;94.20;;;;;;5035333;28;20034;-73
2021/01/21 00:39:32;;;;;;;2.65;0.40;;;10.70;94.30;;;;;;5039002;28;20380;-73
2021/01/21 00:41:58;;;;;;;0.32;0.00;;;10.70;93.80;;;;;;5055778;28;20036;-73
2021/01/21 00:44:24;;;;;;;0.85;0.10;;;10.80;94.10;;;;;;5055455;28;20067;-73
2021/01/21 00:46:49;;;;;;;0.80;0.00;;;10.80;93.50;;;;;;5054963;28;20079;-73
2021/01/21 00:49:15;;;;;;;0.40;0.00;;;10.80;93.50;;;;;;5034144;28;20045;-73
2021/01/21 00:51:40;;;;;;;0.82;0.00;;;10.80;93.40;;;;;;5036244;28;20025;-73
2021/01/21 00:54:06;;;;;;;4.18;0.15;;;10.80;93.10;;;;;;5039482;28;20031;-73
2021/01/21 00:56:31;;;;;;;0.50;0.00;;;10.90;93.50;;;;;;5054429;28;20491;-73
2021/01/21 00:58:57;;;;;;;0.80;0.00;;;10.80;93.50;;;;;;5055519;28;20470;-73
2021/01/21 01:01:22;;;;;;;2.40;0.08;;;10.80;93.50;;;;;;5055527;28;20466;-73
2021/01/21 01:03:48;;;;;;;0.88;0.00;;;10.80;94.90;;;;;;5055471;28;20479;-73
2021/01/21 01:06:14;;;;;;;5.68;0.38;;;10.80;97.00;;;;;;5038480;28;20030;-73
2021/01/21 01:08:39;;;;;;;0.50;0.00;;;10.70;99.00;;;;;;5041173;28;20025;-73
2021/01/21 01:11:05;;;;;;;3.70;0.15;;;10.60;99.90;;;;;;5054564;28;20041;-73
2021/01/21 01:13:30;;;;;;;1.50;0.00;;;10.50;99.90;;;;;;5033877;28;20044;-73
2021/01/21 01:15:56;;;;;;;1.00;0.00;;;10.50;99.90;;;;;;5034090;28;20052;-73
2021/01/21 01:18:22;;;;;;;2.30;0.30;;;10.40;99.90;;;;;;5034539;28;20395;-73
2021/01/21 01:20:50;;;;;;;1.00;0.10;;;10.30;99.90;;;;;;5049724;28;20071;-73
2021/01/21 01:23:16;;;;;;;0.25;0.00;;;10.30;99.90;;;;;;5053687;28;20478;-73
2021/01/21 01:25:42;;;;;;;1.73;0.03;;;10.20;99.90;;;;;;5035400;28;20017;-73
2021/01/21 01:28:07;;;;;;;4.38;0.17;;;10.20;99.90;;;;;;5048925;28;20033;-73
2021/01/21 01:30:33;;;;;;;2.50;0.00;;;10.10;99.90;;;;;;5035409;28;20055;-73
2021/01/21 01:32:58;;;;;;;1.75;0.00;;;10.20;99.90;;;;;;5033668;28;20458;-73
2021/01/21 01:35:24;;;;;;;1.45;0.15;;;10.20;99.90;;;;;;5039577;28;20032;-73
2021/01/21 01:37:50;;;;;;;1.13;0.00;;;10.20;99.90;;;;;;5054031;28;20108;-73
2021/01/21 01:40:15;;;;;;;3.80;0.28;;;10.20;99.90;;;;;;5054735;28;20494;-73
2021/01/21 01:42:42;;;;;;;3.50;0.00;;;10.30;99.90;;;;;;5051753;28;20025;-73
2021/01/21 01:45:10;;;;;;;1.42;0.00;;;10.30;99.90;;;;;;5055378;28;20471;-73
2021/01/21 01:47:38;;;;;;;1.17;0.00;;;10.40;99.90;;;;;;5053361;28;20032;-73
2021/01/21 01:50:04;;;;;;;0.53;0.00;;;10.40;99.90;;;;;;5054791;28;20035;-73
2021/01/21 01:52:30;;;;;;;3.03;0.43;;;10.50;99.90;;;;;;5054651;28;20025;-73
2021/01/21 01:54:55;;;;;;;1.92;0.05;;;10.40;99.90;;;;;;5054263;28;20112;-72
2021/01/21 01:57:22;;;;;;;1.48;0.05;;;10.50;99.90;;;;;;5053833;28;20080;-73
2021/01/21 01:59:54;;;;;;;1.55;0.00;;;10.50;99.90;;;;;;5052553;28;20394;-73
2021/01/21 02:02:19;;;;;;;2.50;0.00;;;10.70;99.50;;;;;;5053019;28;20082;-73
2021/01/21 02:04:46;;;;;;;0.93;0.00;;;10.60;98.70;;;;;;5034231;28;20026;-72
2021/01/21 02:07:12;;;;;;;1.50;0.15;;;10.70;98.00;;;;;;5034298;28;20080;-73
2021/01/21 02:09:38;;;;;;;1.23;0.10;;;10.80;98.00;;;;;;5048214;28;20108;-73
2021/01/21 02:12:29;;;;;;;0.52;0.00;;;10.80;97.80;;;;;;5053726;28;20056;-72
2021/01/21 02:15:28;;;;;;;0.20;0.05;;;10.90;97.60;;;;;;5053772;28;20502;-72
2021/01/21 02:18:07;;;;;;;0.30;0.00;;;10.80;97.90;;;;;;5038214;28;20476;-72
2021/01/21 02:21:10;;;;;;;2.13;0.20;;;10.90;97.40;;;;;;5052099;28;20040;-73
2021/01/21 02:23:54;;;;;;;0.93;0.00;;;11.00;97.30;;;;;;5033908;28;20112;-73
2021/01/21 02:26:32;;;;;;;0.30;0.00;;;11.00;97.40;;;;;;5032474;28;20025;-73
2021/01/21 02:29:25;;;;;;;0.55;0.10;;;11.00;97.30;;;;;;5032315;28;20508;-72
2021/01/21 02:31:56;;;;;;;2.08;0.20;;;11.00;96.90;;;;;;5033590;28;20028;-73
2021/01/21 02:34:29;;;;;;;0.75;0.00;;;11.10;96.20;;;;;;5034337;28;20021;-73
2021/01/21 02:36:56;;;;;;;1.40;0.03;;;11.10;96.90;;;;;;5041751;28;20037;-73
2021/01/21 02:39:24;;;;;;;2.58;0.00;;;11.10;96.10;;;;;;5033886;28;20034;-72
2021/01/21 02:41:49;;;;;;;0.28;0.00;;;11.20;94.80;;;;;;5040154;28;20033;-72
2021/01/21 02:44:15;;;;;;;0.32;0.05;;;11.30;95.10;;;;;;5054689;28;20096;-72
2021/01/21 02:46:42;;;;;;;0.52;0.00;;;11.30;94.20;;;;;;5044883;28;20025;-72
2021/01/21 02:49:08;;;;;;;3.40;0.00;;;11.40;94.30;;;;;;5037668;28;20032;-72
2021/01/21 02:51:41;;;;;;;3.42;0.00;;;11.40;94.00;;;;;;5039220;28;20029;-72
2021/01/21 02:54:23;;;;;;;2.25;0.00;;;11.40;94.40;;;;;;5038289;28;20025;-72
2021/01/21 02:56:55;;;;;;;1.52;0.00;;;11.40;94.40;;;;;;5044901;28;20040;-72
2021/01/21 02:59:23;;;;;;;1.20;0.10;;;11.50;94.90;;;;;;5057688;28;20021;-72
2021/01/21 03:01:51;;;;;;;0.10;0.00;;;11.40;96.90;;;;;;5057870;28;20390;-72
2021/01/21 03:04:19;;;;;;;1.10;0.10;;;11.30;99.70;;;;;;5049950;28;20018;-72
2021/01/21 03:06:45;;;;;;;1.33;0.00;;;11.20;99.90;;;;;;5056614;28;20035;-72
2021/01/21 03:09:11;;;;;;;0.55;0.00;;;11.00;99.90;;;;;;5057533;28;20021;-72
2021/01/21 03:11:37;;;;;;;1.50;0.00;;;10.80;99.90;;;;;;5057037;28;20090;-71
2021/01/21 03:14:03;;;;;;;1.67;0.00;;;10.60;99.90;;;;;;5056750;28;20115;-71
2021/01/21 03:16:28;;;;;;;4.15;0.43;;;10.60;99.90;;;;;;5057375;28;20419;-72
2021/01/21 03:18:54;;;;;;;0.63;0.00;;;10.60;99.90;;;;;;5055537;28;20025;-72
2021/01/21 03:21:19;;;;;;;0.70;0.00;;;10.60;99.90;;;;;;5056300;28;20021;-72
2021/01/21 03:23:46;;;;;;;0.30;0.00;;;10.60;99.90;;;;;;5056647;28;20032;-73
2021/01/21 03:26:12;;;;;;;1.20;0.00;;;10.50;99.90;;;;;;5054992;28;20013;-73
2021/01/21 03:28:39;;;;;;;1.08;0.05;;;10.40;99.90;;;;;;5057048;28;20383;-78
2021/01/21 03:31:04;;;;;;;0.68;0.22;;;10.40;99.90;;;;;;5056820;28;20017;-78
2021/01/21 03:33:30;;;;;;;3.95;0.00;;;10.30;99.90;;;;;;5052627;28;20037;-77
2021/01/21 03:35:55;;;;;;;0.28;0.00;;;10.20;99.90;;;;;;5036541;28;20067;-72
2021/01/21 03:38:21;;;;;;;0.73;0.00;;;10.10;99.90;;;;;;5038798;28;20044;-72
2021/01/21 03:40:47;;;;;;;0.08;0.00;;;10.00;99.90;;;;;;5055581;28;20036;-72
2021/01/21 03:43:12;;;;;;;0.20;0.00;;;10.00;99.90;;;;;;5052867;28;20029;-72
2021/01/21 03:45:38;;;;;;;0.30;0.00;;;10.00;99.90;;;;;;5055960;28;20098;-73
2021/01/21 03:48:03;;;;;;;5.88;0.38;;;10.00;99.90;;;;;;5053565;28;20074;-73
2021/01/21 03:50:30;;;;;;;4.47;0.15;;;9.80;99.90;;;;;;5055244;28;20509;-72
2021/01/21 03:52:55;;;;;;;3.20;0.17;;;8.40;99.90;;;;;;5038228;28;20399;-73
2021/01/21 03:55:21;;;;;;;3.97;0.00;;;7.00;99.90;;;;;;5036584;28;20026;-73
2021/01/21 03:57:47;;;;;;;4.43;0.00;;;6.20;99.90;;;;;;5034805;28;20480;-73
2021/01/21 04:00:13;;;;;;;7.18;0.45;;;5.80;99.90;;;;;;5035945;28;20076;-73
2021/01/21 04:02:38;;;;;;;0.47;0.10;;;5.70;99.90;;;;;;5036057;28;20108;-72
2021/01/21 04:05:04;;;;;;;1.48;0.00;;;5.70;99.90;;;;;;5034724;28;20049;-73
2021/01/21 04:07:30;;;;;;;1.25;0.00;;;5.80;99.90;;;;;;5047796;28;20028;-73
2021/01/21 04:09:55;;;;;;;0.40;0.00;;;5.90;99.90;;;;;;5054895;28;20383;-72
2021/01/21 04:12:21;;;;;;;12.60;0.10;;;6.00;99.90;;;;;;5046411;28;20479;-73
2021/01/21 04:14:47;;;;;;;6.47;0.47;;;6.20;99.90;;;;;;5055764;28;20040;-73
2021/01/21 04:17:12;;;;;;;5.70;0.57;;;6.30;99.90;;;;;;5049886;28;20025;-73
2021/01/21 04:19:38;;;;;;;2.00;0.00;;;6.50;99.90;;;;;;5055582;28;20092;-73
2021/01/21 04:22:03;;;;;;;3.60;0.57;;;6.60;99.90;;;;;;5055878;28;20021;-73
2021/01/21 04:24:29;;;;;;;3.97;0.52;;;6.70;99.90;;;;;;5041023;28;20034;-73
2021/01/21 04:26:54;;;;;;;12.32;0.82;;;6.70;99.90;;;;;;5047999;28;20026;-73
2021/01/21 04:29:20;;;;;;;4.72;0.75;;;6.80;99.90;;;;;;5036074;28;20052;-72
2021/01/21 04:31:46;;;;;;;5.45;0.35;;;6.90;99.90;;;;;;5036363;28;20029;-72
2021/01/21 04:34:11;;;;;;;2.75;0.20;;;6.90;99.90;;;;;;5036086;28;20030;-72
2021/01/21 04:36:37;;;;;;;2.08;0.13;;;6.90;99.90;;;;;;5037186;28;20026;-73
2021/01/21 04:39:04;;;;;;;8.18;0.80;;;7.00;99.90;;;;;;5036016;28;20033;-73
2021/01/21 04:41:29;;;;;;;3.78;0.00;;;6.90;99.90;;;;;;5034529;28;20083;-73
2021/01/21 04:43:55;;;;;;;6.50;0.47;;;6.90;99.90;;;;;;5036051;28;20014;-73
2021/01/21 04:46:21;;;;;;;6.40;0.30;;;6.90;99.90;;;;;;5035674;28;20022;-73
2021/01/21 04:48:48;;;;;;;2.40;0.03;;;6.90;99.90;;;;;;5035671;28;20485;-73
2021/01/21 04:51:15;;;;;;;3.80;0.28;;;7.00;99.90;;;;;;5035700;28;20045;-73
2021/01/21 04:53:47;;;;;;;9.25;0.63;;;7.00;99.90;;;;;;5034326;28;20029;-73
2021/01/21 04:56:22;;;;;;;8.82;0.40;;;7.10;99.90;;;;;;5039594;28;20106;-73
2021/01/21 04:58:57;;;;;;;5.07;0.28;;;7.10;99.90;;;;;;5055554;28;20017;-73
2021/01/21 05:01:25;;;;;;;8.20;0.90;;;7.20;99.90;;;;;;5038503;28;20026;-75
2021/01/21 05:03:51;;;;;;;5.75;0.00;;;7.30;99.90;;;;;;5036154;28;20028;-74
2021/01/21 05:06:18;;;;;;;18.52;0.80;;;7.30;99.90;;;;;;5034047;28;20017;-73
2021/01/21 05:08:44;;;;;;;4.20;0.08;;;7.20;99.90;;;;;;5035376;28;20017;-74
2021/01/21 05:11:10;;;;;;;8.57;0.85;;;7.30;99.90;;;;;;5034995;28;20116;-74
2021/01/21 05:13:36;;;;;;;9.73;0.55;;;7.30;99.90;;;;;;5054749;28;20021;-74
2021/01/21 05:16:01;;;;;;;10.75;0.68;;;7.20;99.90;;;;;;5033786;28;20079;-74
2021/01/21 05:18:28;;;;;;;10.07;0.50;;;7.20;99.90;;;;;;5035999;28;20067;-74
2021/01/21 05:20:54;;;;;;;8.30;0.40;;;7.20;99.90;;;;;;5052714;28;20037;-74
2021/01/21 05:23:24;;;;;;;7.40;0.68;;;7.10;99.90;;;;;;5053080;28;20116;-74
2021/01/21 05:25:52;;;;;;;3.33;0.15;;;7.10;99.90;;;;;;5053856;28;20063;-74
2021/01/21 05:28:18;;;;;;;12.57;0.10;;;7.10;99.90;;;;;;5053556;28;20059;-74
2021/01/21 05:30:47;;;;;;;13.15;1.33;;;7.10;99.90;;;;;;5040628;28;20029;-74
2021/01/21 05:33:14;;;;;;;12.57;0.47;;;7.00;99.90;;;;;;5037280;28;20066;-74
2021/01/21 05:35:41;;;;;;;6.78;0.13;;;6.90;99.90;;;;;;5054515;28;20483;-74
2021/01/21 05:38:08;;;;;;;4.03;0.20;;;6.90;99.90;;;;;;5035232;28;20025;-74
2021/01/21 05:40:33;;;;;;;7.50;1.35;;;6.90;99.90;;;;;;5034417;28;20037;-73
2021/01/21 05:43:02;;;;;;;7.40;0.25;;;6.90;99.90;;;;;;5032788;28;20026;-73
2021/01/21 05:45:28;;;;;;;8.52;0.08;;;6.80;99.90;;;;;;5032941;28;20018;-74
2021/01/21 05:47:58;;;;;;;4.97;0.70;;;6.80;99.90;;;;;;5034980;28;20405;-73
2021/01/21 05:50:24;;;;;;;7.90;0.80;;;6.70;99.90;;;;;;5034012;28;20029;-73
2021/01/21 05:52:51;;;;;;;1.10;0.20;;;6.60;99.90;;;;;;5053555;28;20036;-73
2021/01/21 05:55:27;;;;;;;3.45;0.20;;;6.60;99.90;;;;;;5053775;28;20078;-73
2021/01/21 05:57:54;;;;;;;6.63;0.65;;;6.60;99.90;;;;;;5052134;28;20025;-73
2021/01/21 06:00:20;;;;;;;5.22;0.30;;;6.60;99.90;;;;;;5053548;28;20032;-73
2021/01/21 06:02:50;;;;;;;6.28;0.38;;;6.60;99.90;;;;;;5054003;28;20025;-73
2021/01/21 06:05:20;;;;;;;11.52;0.88;;;6.60;99.90;;;;;;5050718;28;20076;-73
2021/01/21 06:07:47;;;;;;;6.35;0.40;;;6.60;99.90;;;;;;5033994;28;20029;-73
2021/01/21 06:10:14;;;;;;;6.20;0.20;;;6.60;99.90;;;;;;5034191;28;20033;-73
2021/01/21 06:12:47;;;;;;;6.32;0.68;;;6.50;99.90;;;;;;5034117;28;20029;-73
2021/01/21 06:15:14;;;;;;;8.52;0.32;;;6.50;99.90;;;;;;5033950;28;20105;-73
2021/01/21 06:17:50;;;;;;;5.05;0.38;;;6.50;99.90;;;;;;5033607;28;20018;-73
2021/01/21 06:20:17;;;;;;;6.03;0.10;;;6.50;99.90;;;;;;5039473;28;20032;-73
2021/01/21 06:22:44;;;;;;;5.78;0.08;;;6.50;99.90;;;;;;5054079;28;20028;-73
2021/01/21 06:25:13;;;;;;;6.35;0.80;;;6.50;99.90;;;;;;5052002;28;20028;-73
2021/01/21 06:27:41;;;;;;;7.78;0.35;;;6.50;99.90;;;;;;5052614;28;20021;-73
2021/01/21 06:30:19;;;;;;;6.43;0.50;;;6.40;99.90;;;;;;5050851;28;20112;-73
2021/01/21 06:33:08;;;;;;;6.70;0.20;;;6.30;99.90;;;;;;5032815;28;20156;-73
2021/01/21 06:35:41;;;;;;;6.90;0.43;;;6.30;99.90;;;;;;5047912;28;20020;-73
2021/01/21 06:38:17;;;;;;;5.07;0.10;;;6.30;99.90;;;;;;5053808;28;20024;-73
2021/01/21 06:40:53;;;;;;;9.40;1.35;;;6.20;99.90;;;;;;5053782;28;20090;-72
2021/01/21 06:43:36;;;;;;;3.15;0.00;;;6.20;99.90;;;;;;5053613;28;20033;-73
2021/01/21 06:46:02;;;;;;;2.42;0.15;;;6.10;99.90;;;;;;5052557;28;20395;-73
2021/01/21 06:48:28;;;;;;;2.60;0.10;;;6.10;99.90;;;;;;5044897;28;20013;-73
2021/01/21 06:50:54;;;;;;;10.68;0.10;;;6.10;99.90;;;;;;5053530;28;20043;-73
2021/01/21 06:53:21;;;;;;;5.47;1.17;;;6.00;99.90;;;;;;5051991;28;20518;-73
2021/01/21 06:55:48;;;;;;;4.10;0.30;;;6.00;99.90;;;;;;5053570;28;20021;-73
2021/01/21 06:58:34;;;;;;;4.82;0.08;;;6.00;99.90;;;;;;5033962;28;20032;-75
2021/01/21 07:01:00;;;;;;;3.15;0.17;;;6.20;99.90;;;;;;5041004;28;20108;-75
2021/01/21 07:03:31;;;;;;;3.50;0.20;;;6.00;99.90;;;;;;5044827;28;20048;-73
2021/01/21 07:06:02;;;;;;;5.25;0.55;;;6.00;99.90;;;;;;5043760;28;20066;-73
2021/01/21 07:08:28;;;;;;;3.20;0.00;;;6.00;99.90;;;;;;5041831;28;20057;-74
2021/01/21 07:10:59;;;;;;;4.40;0.00;;;6.00;99.90;;;;;;5033743;28;20026;-74
2021/01/21 07:13:27;;;;;;;1.58;0.30;;;6.00;99.90;;;;;;5042777;28;20032;-74
2021/01/21 07:16:00;;;;;;;3.30;0.00;;;6.00;99.90;;;;;;5043244;28;20039;-74
2021/01/21 07:18:32;;;;;;;2.72;0.00;;;5.90;99.90;;;;;;5053683;28;20111;-74
2021/01/21 07:21:07;;;;;;;6.32;0.00;;;5.80;99.90;;;;;;5053475;28;20032;-75
2021/01/21 07:23:43;;;;;;;3.95;0.60;;;5.80;99.90;;;;;;5053918;28;20071;-72
2021/01/21 07:26:27;;;;;;;4.97;0.00;;;5.80;99.90;;;;;;5053549;28;20096;-72
2021/01/21 07:28:58;;;;;;;2.72;0.10;;;5.70;99.90;;;;;;5054021;28;20025;-72
2021/01/21 07:31:25;;;;;;;4.22;0.85;;;5.70;99.90;;;;;;5054180;28;20033;-76
2021/01/21 07:34:23;;;;;;;9.43;0.35;;;5.70;99.90;;;;;;5055021;28;20025;-76
2021/01/21 07:37:10;;;;;;;6.13;0.00;;;5.60;99.90;;;;;;5057296;28;20063;-76
2021/01/21 07:40:01;;;;;;;9.10;0.17;;;5.50;99.90;;;;;;5057451;28;20502;-77
2021/01/21 07:42:33;;;;;;;1.88;0.00;;;5.50;99.90;;;;;;5056874;28;20383;-77
2021/01/21 07:45:17;;;;;;;7.50;0.52;;;5.60;99.90;;;;;;5055589;28;20021;-77
2021/01/21 07:47:48;;;;;;;7.63;0.10;;;5.50;99.90;;;;;;5056399;28;20025;-74
2021/01/21 07:50:21;;;;;;;2.33;0.00;;;5.50;99.90;;;;;;5056816;28;20025;-77
2021/01/21 07:52:48;;;;;;;8.63;0.40;;;5.40;99.90;;;;;;5056148;28;20060;-78
2021/01/21 07:55:15;;;;;;;3.38;0.15;;;5.40;99.90;;;;;;5054988;28;20029;-77
2021/01/21 07:57:41;;;;;;;6.93;0.55;;;5.40;99.90;;;;;;5056137;28;20060;-77
2021/01/21 08:00:11;;;;;;;5.47;0.75;;;5.40;99.90;;;;;;5054742;28;20503;-75
2021/01/21 08:02:42;;;;;;;6.93;0.70;;;5.40;99.90;;;;;;5055161;28;20009;-76
2021/01/21 08:05:09;;;;;;;5.03;0.10;;;5.40;99.90;;;;;;5056524;28;20021;-75
2021/01/21 08:07:46;;;;;;;5.80;0.70;;;5.40;99.90;;;;;;5055179;28;20499;-74
2021/01/21 08:10:20;;;;;;;4.13;0.10;;;5.40;99.90;;;;;;5056426;28;20443;-74
2021/01/21 08:13:06;;;;;;;2.30;0.13;;;5.50;99.90;;;;;;5056408;28;20540;-75
2021/01/21 08:15:35;;;;;;;4.20;0.20;;;5.40;99.90;;;;;;5055932;28;20029;-74
2021/01/21 08:18:00;;;;;;;5.47;0.20;;;5.40;99.90;;;;;;5056121;28;20025;-73
2021/01/21 08:20:33;;;;;;;7.60;1.00;;;5.50;99.90;;;;;;5056404;28;20044;-76
2021/01/21 08:23:06;;;;;;;5.28;0.05;;;5.60;99.90;;;;;;5055274;28;20059;-77
2021/01/21 08:25:38;;;;;;;3.97;0.00;;;5.60;99.90;;;;;;5055141;28;20021;-75
2021/01/21 08:28:04;;;;;;;9.10;0.57;;;5.60;99.90;;;;;;5054921;28;20115;-76
2021/01/21 08:30:30;;;;;;;5.70;0.52;;;5.70;99.90;;;;;;5054953;28;20060;-76
2021/01/21 08:32:56;;;;;;;7.03;0.70;;;5.60;99.90;;;;;;5054695;28;20434;-75
2021/01/21 08:35:24;;;;;;;8.93;0.20;;;5.70;99.90;;;;;;5056187;28;20033;-74
2021/01/21 08:37:51;;;;;;;5.80;0.45;;;5.70;99.90;;;;;;5056220;28;20114;-74
2021/01/21 08:40:20;;;;;;;9.48;0.38;;;5.70;99.90;;;;;;5055886;28;20021;-74
2021/01/21 08:42:48;;;;;;;5.80;0.43;;;5.70;99.90;;;;;;5055871;28;20025;-74
2021/01/21 08:45:14;;;;;;;1.48;0.05;;;5.80;99.90;;;;;;5055754;28;20025;-74
2021/01/21 08:47:40;;;;;;;9.13;0.20;;;5.90;99.90;;;;;;5054711;28;20029;-73
2021/01/21 08:50:07;;;;;;;9.45;0.60;;;5.80;99.90;;;;;;5054422;28;20048;-73
2021/01/21 08:52:32;;;;;;;1.92;0.55;;;5.90;99.90;;;;;;5055876;28;20079;-73
2021/01/21 08:54:58;;;;;;;6.28;0.43;;;6.00;99.90;;;;;;5055567;28;20021;-73
2021/01/21 08:57:24;;;;;;;3.00;0.20;;;6.00;99.90;;;;;;5055109;28;20018;-73
2021/01/21 08:59:50;;;;;;;10.70;1.25;;;6.00;99.90;;;;;;5055737;28;20021;-75
2021/01/21 09:02:40;;;;;;;6.30;0.00;;;6.00;99.90;;;;;;5056110;28;20028;-74
2021/01/21 09:05:06;;;;;;;7.90;0.40;;;6.10;99.90;;;;;;5054645;28;20048;-74
2021/01/21 09:07:32;;;;;;;3.17;0.52;;;6.20;99.90;;;;;;5055688;28;20013;-74
2021/01/21 09:10:09;;;;;;;4.47;0.55;;;6.20;99.90;;;;;;5055500;28;20029;-74
2021/01/21 09:12:34;;;;;;;6.05;0.30;;;6.20;99.90;;;;;;5055362;28;20383;-74
2021/01/21 09:15:14;;;;;;;4.75;0.35;;;6.30;99.90;;;;;;5109252;22;20048;-75
2021/01/21 09:17:41;;;;;;;15.27;0.30;;;6.40;99.90;;;;;;5073940;28;20057;-74
2021/01/21 09:20:27;;;;;;;6.00;0.50;;;6.40;99.90;;;;;;5073885;28;20032;-75
2021/01/21 09:22:53;;;;;;;7.00;0.50;;;6.40;99.90;;;;;;5074995;28;20390;-75
2021/01/21 09:25:27;;;;;;;6.45;0.10;;;6.50;99.90;;;;;;5073954;28;20020;-74
2021/01/21 09:27:54;;;;;;;6.60;0.45;;;6.50;99.90;;;;;;5073912;28;20020;-75
2021/01/21 09:30:20;;;;;;;3.63;0.52;;;6.60;99.90;;;;;;5073678;28;20024;-75
2021/01/21 09:32:46;;;;;;;4.32;0.20;;;6.70;99.90;;;;;;5073428;28;20032;-75
2021/01/21 09:35:13;;;;;;;8.75;0.65;;;6.70;99.90;;;;;;5075036;28;20024;-74
2021/01/21 09:37:41;;;;;;;7.00;0.22;;;6.80;99.90;;;;;;5074147;28;20450;-75
2021/01/21 09:40:24;;;;;;;1.65;0.28;;;7.00;99.90;;;;;;5074918;28;20107;-74
2021/01/21 09:42:56;;;;;;;6.07;0.63;;;7.00;99.90;;;;;;5075197;28;20032;-75
2021/01/21 09:45:22;;;;;;;6.85;0.52;;;7.20;99.90;;;;;;5074757;28;20104;-75
2021/01/21 09:47:51;;;;;;;9.73;0.63;;;7.20;99.90;;;;;;5074944;28;20021;-77
2021/01/21 09:50:18;;;;;;;7.78;0.13;;;7.20;99.90;;;;;;5074614;28;20562;-76
2021/01/21 09:52:43;;;;;;;6.13;0.30;;;7.00;99.90;;;;;;5075068;28;20020;-77
2021/01/21 09:55:10;;;;;;;6.28;0.85;;;7.40;99.90;;;;;;5073569;28;20044;-74
2021/01/21 09:57:36;;;;;;;7.80;0.17;;;6.90;99.90;;;;;;5074104;28;20021;-74
2021/01/21 10:00:04;;;;;;;10.73;0.75;;;6.90;99.90;;;;;;5074675;28;20115;-74
2021/01/21 10:02:29;;;;;;;7.57;0.17;;;6.90;99.90;;;;;;5073263;28;20021;-74
2021/01/21 10:04:55;;;;;;;8.48;0.88;;;7.00;99.90;;;;;;5074389;28;20032;-74
2021/01/21 10:07:20;;;;;;;9.88;0.05;;;7.10;99.90;;;;;;5073105;28;20016;-75
2021/01/21 10:10:36;;;;;;;7.05;1.10;;;7.20;99.90;;;;;;5074271;28;20024;-75
2021/01/21 10:13:01;;;;;;;7.15;0.20;;;7.20;99.90;;;;;;5072750;28;20512;-75
2021/01/21 10:15:27;;;;;;;7.32;0.73;;;7.20;99.90;;;;;;5073790;28;20032;-75
2021/01/21 10:17:53;;;;;;;7.65;1.15;;;7.30;99.90;;;;;;5072512;28;20024;-75
2021/01/21 10:20:18;;;;;;;8.65;0.00;;;7.30;99.90;;;;;;5074103;28;20078;-75
2021/01/21 10:22:44;;;;;;;8.98;0.52;;;7.30;99.90;;;;;;5074010;28;20016;-75
2021/01/21 10:25:10;;;;;;;2.83;0.45;;;7.30;99.90;;;;;;5074151;28;20063;-75
2021/01/21 10:27:35;;;;;;;10.77;0.35;;;7.30;99.90;;;;;;5073948;28;20025;-75
2021/01/21 10:30:01;;;;;;;6.93;0.98;;;7.30;99.90;;;;;;5074146;28;20044;-75
2021/01/21 10:32:27;;;;;;;4.20;0.00;;;7.50;99.90;;;;;;5072562;28;20016;-75
2021/01/21 10:34:52;;;;;;;10.00;0.38;;;7.60;99.90;;;;;;5072726;28;20020;-75
2021/01/21 10:37:18;;;;;;;6.25;0.15;;;7.70;99.90;;;;;;5072504;28;20032;-75
2021/01/21 10:39:43;;;;;;;4.30;0.45;;;7.90;99.90;;;;;;5073889;28;20013;-75
2021/01/21 10:42:09;;;;;;;3.50;0.20;;;7.80;99.90;;;;;;5073583;28;20028;-75
2021/01/21 10:44:35;;;;;;;6.43;0.43;;;7.80;99.90;;;;;;5072876;28;20021;-75
2021/01/21 10:47:01;;;;;;;11.77;0.30;;;7.80;99.90;;;;;;5073582;28;20013;-75
2021/01/21 10:49:27;;;;;;;7.22;0.10;;;7.90;99.90;;;;;;5072493;28;20074;-75
2021/01/21 10:51:56;;;;;;;6.53;0.30;;;7.90;99.90;;;;;;5072451;28;20074;-75
2021/01/21 10:54:22;;;;;;;5.50;0.00;;;7.90;99.90;;;;;;5072642;28;20028;-75
2021/01/21 10:56:53;;;;;;;10.00;0.35;;;8.00;99.90;;;;;;5072746;28;20111;-75
2021/01/21 10:59:18;;;;;;;7.70;0.45;;;7.90;99.90;;;;;;5072735;28;20028;-75
2021/01/21 11:01:44;;;;;;;14.57;0.32;;;7.90;99.90;;;;;;5073575;28;20092;-75
2021/01/21 11:04:09;;;;;;;4.38;0.20;;;7.90;99.90;;;;;;5072554;28;20036;-75
2021/01/21 11:06:35;;;;;;;4.82;0.00;;;8.00;99.90;;;;;;5072457;28;20021;-75
2021/01/21 11:09:01;;;;;;;7.88;0.35;;;8.10;99.90;;;;;;5075547;28;20053;-75
2021/01/21 11:11:26;;;;;;;3.92;0.10;;;8.40;99.80;;;;;;5076412;28;20032;-75
2021/01/21 11:13:53;;;;;;;6.45;0.55;;;8.20;98.40;;;;;;5077333;28;20032;-75
2021/01/21 11:16:19;;;;;;;5.68;0.10;;;8.20;98.60;;;;;;5077538;28;20028;-75
2021/01/21 11:18:45;;;;;;;5.93;0.20;;;8.10;98.80;;;;;;5077285;28;20027;-75
2021/01/21 11:21:10;;;;;;;1.65;0.00;;;8.10;98.50;;;;;;5076175;28;20028;-75
2021/01/21 11:23:36;;;;;;;3.15;0.65;;;8.00;98.50;;;;;;5075845;28;20023;-75
2021/01/21 11:26:01;;;;;;;2.22;0.00;;;7.90;99.60;;;;;;5077054;28;20067;-75
2021/01/21 11:28:27;;;;;;;7.68;0.60;;;7.80;99.50;;;;;;5077216;28;20016;-75
2021/01/21 11:30:53;;;;;;;4.32;0.25;;;7.80;99.90;;;;;;5076389;28;20067;-75
2021/01/21 11:33:18;;;;;;;3.75;0.08;;;7.80;99.90;;;;;;5077464;28;20502;-75
2021/01/21 11:35:47;;;;;;;9.00;0.10;;;7.90;99.90;;;;;;5077087;28;20017;-75
2021/01/21 11:38:16;;;;;;;2.22;0.00;;;8.00;99.30;;;;;;5076634;28;20020;-75
2021/01/21 11:40:42;;;;;;;6.13;0.32;;;8.10;99.60;;;;;;5075699;28;20094;-75
2021/01/21 11:43:08;;;;;;;5.70;0.35;;;8.10;98.80;;;;;;5076828;28;20493;-75
2021/01/21 11:45:35;;;;;;;2.72;0.28;;;8.10;98.60;;;;;;5075843;28;20032;-75
2021/01/21 11:48:00;;;;;;;8.00;0.30;;;8.20;98.70;;;;;;5077067;28;20032;-76
2021/01/21 11:50:26;;;;;;;7.15;0.30;;;8.30;97.80;;;;;;5075423;28;20029;-76
2021/01/21 11:52:52;;;;;;;8.60;0.20;;;8.40;97.20;;;;;;5076952;28;20036;-76
2021/01/21 11:55:20;;;;;;;3.22;0.00;;;8.40;97.40;;;;;;5075521;28;20382;-76
2021/01/21 11:57:46;;;;;;;9.82;0.10;;;8.50;98.10;;;;;;5076676;28;20470;-76
2021/01/21 12:00:13;;;;;;;7.85;0.10;;;8.60;97.00;;;;;;5075410;28;20074;-76
2021/01/21 12:02:39;;;;;;;5.32;0.38;;;8.70;96.10;;;;;;5075177;28;20467;-76
2021/01/21 12:05:06;;;;;;;1.73;0.08;;;8.70;95.50;;;;;;5075948;28;20053;-76
2021/01/21 12:07:31;;;;;;;5.18;0.22;;;8.70;95.40;;;;;;5075879;28;20028;-76
2021/01/21 12:09:57;;;;;;;7.57;0.35;;;8.60;95.60;;;;;;5076966;28;20032;-76
2021/01/21 12:12:23;;;;;;;2.92;0.15;;;8.60;95.40;;;;;;5075894;28;20028;-76
2021/01/21 12:14:49;;;;;;;2.20;0.00;;;8.60;95.40;;;;;;5074525;28;20025;-76
2021/01/21 12:17:15;;;;;;;5.78;0.13;;;8.60;95.30;;;;;;5074420;28;20029;-76
2021/01/21 12:19:40;;;;;;;1.70;0.00;;;8.70;94.60;;;;;;5075272;28;20024;-76
2021/01/21 12:22:06;;;;;;;0.55;0.00;;;8.80;93.80;;;;;;5074341;28;20017;-76
2021/01/21 12:24:32;;;;;;;0.40;0.20;;;8.90;93.00;;;;;;5075783;28;20056;-76
2021/01/21 12:26:57;;;;;;;3.65;0.00;;;8.80;92.30;;;;;;5075618;28;20489;-76
2021/01/21 12:29:23;;;;;;;0.75;0.10;;;8.80;93.10;;;;;;5074297;28;20382;-75
2021/01/21 12:31:48;;;;;;;2.90;0.10;;;8.70;92.50;;;;;;5075536;28;20108;-76
2021/01/21 12:34:14;;;;;;;2.38;0.22;;;8.70;93.30;;;;;;5074342;28;20024;-76
2021/01/21 12:36:39;;;;;;;4.80;0.10;;;8.70;92.50;;;;;;5075846;28;20498;-75
2021/01/21 12:39:05;;;;;;;1.75;0.00;;;8.80;93.20;;;;;;5075999;28;20489;-75
2021/01/21 12:41:31;;;;;;;6.97;0.00;;;8.80;92.30;;;;;;5075204;28;20029;-76
2021/01/21 12:43:56;;;;;;;4.00;0.00;;;8.70;92.80;;;;;;5075328;28;20024;-75
2021/01/21 12:46:24;;;;;;;2.40;0.25;;;8.70;93.40;;;;;;5074152;28;20028;-75
2021/01/21 12:48:56;;;;;;;2.88;0.03;;;8.70;93.30;;;;;;5074056;28;20502;-75
2021/01/21 12:51:21;;;;;;;1.70;0.10;;;8.80;93.60;;;;;;5075767;28;20032;-75
2021/01/21 12:53:48;;;;;;;1.27;0.00;;;8.80;93.80;;;;;;5074138;28;20395;-75
2021/01/21 12:56:13;;;;;;;3.30;0.00;;;8.70;92.70;;;;;;5073877;28;20482;-76
2021/01/21 12:58:39;;;;;;;2.63;0.77;;;8.60;93.70;;;;;;5075361;28;20031;-76